sensor_id;sensor_type;location;lat;lon;timestamp;temperature;humidity
21678;DHT22;11000;50.360;7.582;2023-07-29T00:01:50;19.30;99.90
21678;DHT22;11000;50.360;7.582;2023-07-29T00:04:13;19.20;99.90
21678;DHT22;11000;50.360;7.582;2023-07-29T00:06:34;19.20;99.90
21678;DHT22;11000;50.360;7.582;2023-07-29T00:08:56;19.30;99.90
21678;DHT22;11000;50.360;7.582;2023-07-29T00:11:16;19.20;99.90
21678;DHT22;11000;50.360;7.582;2023-07-29T00:13:37;19.30;99.90
21678;DHT22;11000;50.360;7.582;2023-07-29T00:15:58;19.30;99.90
21678;DHT22;11000;50.360;7.582;2023-07-29T00:18:19;19.30;99.90
21678;DHT22;11000;50.360;7.582;2023-07-29T00:20:40;19.30;99.90
21678;DHT22;11000;50.360;7.582;2023-07-29T00:23:00;19.30;99.90
21678;DHT22;11000;50.360;7.582;2023-07-29T00:25:25;19.20;99.90
21678;DHT22;11000;50.360;7.582;2023-07-29T00:27:46;19.20;99.90
21678;DHT22;11000;50.360;7.582;2023-07-29T00:30:07;19.20;99.90
21678;DHT22;11000;50.360;7.582;2023-07-29T00:32:30;19.20;99.90
21678;DHT22;11000;50.360;7.582;2023-07-29T00:34:54;19.20;99.90
21678;DHT22;11000;50.360;7.582;2023-07-29T00:37:23;19.20;99.90
21678;DHT22;11000;50.360;7.582;2023-07-29T00:39:44;19.20;99.90
21678;DHT22;11000;50.360;7.582;2023-07-29T00:42:05;19.20;99.90
21678;DHT22;11000;50.360;7.582;2023-07-29T00:44:26;19.20;99.90
21678;DHT22;11000;50.360;7.582;2023-07-29T00:46:50;19.20;99.90
21678;DHT22;11000;50.360;7.582;2023-07-29T00:49:12;19.20;99.90
21678;DHT22;11000;50.360;7.582;2023-07-29T00:51:33;19.20;99.90
21678;DHT22;11000;50.360;7.582;2023-07-29T00:53:54;19.10;99.90
21678;DHT22;11000;50.360;7.582;2023-07-29T00:56:14;19.10;99.90
21678;DHT22;11000;50.360;7.582;2023-07-29T00:58:35;19.10;99.90
21678;DHT22;11000;50.360;7.582;2023-07-29T01:00:57;19.10;99.90
21678;DHT22;11000;50.360;7.582;2023-07-29T01:03:17;19.10;99.90
21678;DHT22;11000;50.360;7.582;2023-07-29T01:06:01;19.10;99.90
21678;DHT22;11000;50.360;7.582;2023-07-29T01:08:42;19.00;99.90
21678;DHT22;11000;50.360;7.582;2023-07-29T01:11:18;19.00;99.90
21678;DHT22;11000;50.360;7.582;2023-07-29T01:14:10;19.00;99.90
21678;DHT22;11000;50.360;7.582;2023-07-29T01:19:01;18.90;99.90
21678;DHT22;11000;50.360;7.582;2023-07-29T01:21:27;19.00;99.90
21678;DHT22;11000;50.360;7.582;2023-07-29T01:23:52;19.00;99.90
21678;DHT22;11000;50.360;7.582;2023-07-29T01:26:13;19.00;99.90
21678;DHT22;11000;50.360;7.582;2023-07-29T01:28:34;19.00;99.90
21678;DHT22;11000;50.360;7.582;2023-07-29T01:31:34;19.00;99.90
21678;DHT22;11000;50.360;7.582;2023-07-29T01:34:13;19.00;99.90
21678;DHT22;11000;50.360;7.582;2023-07-29T01:36:34;19.00;99.90
21678;DHT22;11000;50.360;7.582;2023-07-29T01:39:02;19.00;99.90
21678;DHT22;11000;50.360;7.582;2023-07-29T01:41:24;19.00;99.90
21678;DHT22;11000;50.360;7.582;2023-07-29T01:43:47;19.00;99.90
21678;DHT22;11000;50.360;7.582;2023-07-29T01:46:10;19.00;99.90
21678;DHT22;11000;50.360;7.582;2023-07-29T01:48:32;19.00;99.90
21678;DHT22;11000;50.360;7.582;2023-07-29T01:50:53;19.00;99.90
21678;DHT22;11000;50.360;7.582;2023-07-29T01:53:14;19.00;99.90
21678;DHT22;11000;50.360;7.582;2023-07-29T01:55:34;19.00;99.90
21678;DHT22;11000;50.360;7.582;2023-07-29T01:57:55;19.00;99.90
21678;DHT22;11000;50.360;7.582;2023-07-29T02:00:16;19.00;99.90
21678;DHT22;11000;50.360;7.582;2023-07-29T02:02:37;19.00;99.90
21678;DHT22;11000;50.360;7.582;2023-07-29T02:04:58;19.00;99.90
21678;DHT22;11000;50.360;7.582;2023-07-29T02:07:19;19.00;99.90
21678;DHT22;11000;50.360;7.582;2023-07-29T02:09:41;19.00;99.90
21678;DHT22;11000;50.360;7.582;2023-07-29T02:12:02;19.00;99.90
21678;DHT22;11000;50.360;7.582;2023-07-29T02:14:26;18.90;99.90
21678;DHT22;11000;50.360;7.582;2023-07-29T02:16:46;19.00;99.90
21678;DHT22;11000;50.360;7.582;2023-07-29T02:19:07;19.00;99.90
21678;DHT22;11000;50.360;7.582;2023-07-29T02:21:28;19.00;99.90
21678;DHT22;11000;50.360;7.582;2023-07-29T02:23:48;19.00;99.90
21678;DHT22;11000;50.360;7.582;2023-07-29T02:26:08;19.00;99.90
21678;DHT22;11000;50.360;7.582;2023-07-29T02:28:29;19.00;99.90
21678;DHT22;11000;50.360;7.582;2023-07-29T02:33:32;18.90;99.90
21678;DHT22;11000;50.360;7.582;2023-07-29T02:35:52;18.90;99.90
21678;DHT22;11000;50.360;7.582;2023-07-29T02:38:13;18.80;99.90
21678;DHT22;11000;50.360;7.582;2023-07-29T02:40:37;18.80;99.90
21678;DHT22;11000;50.360;7.582;2023-07-29T02:42:57;18.80;99.90
21678;DHT22;11000;50.360;7.582;2023-07-29T02:45:18;18.80;99.90
21678;DHT22;11000;50.360;7.582;2023-07-29T02:47:38;18.80;99.90
21678;DHT22;11000;50.360;7.582;2023-07-29T02:49:59;18.80;99.90
21678;DHT22;11000;50.360;7.582;2023-07-29T02:52:20;18.80;99.90
21678;DHT22;11000;50.360;7.582;2023-07-29T02:54:40;18.80;99.90
21678;DHT22;11000;50.360;7.582;2023-07-29T02:57:01;18.80;99.90
21678;DHT22;11000;50.360;7.582;2023-07-29T02:59:21;18.80;99.90
21678;DHT22;11000;50.360;7.582;2023-07-29T03:01:42;18.80;99.90
21678;DHT22;11000;50.360;7.582;2023-07-29T03:04:03;18.80;99.90
21678;DHT22;11000;50.360;7.582;2023-07-29T03:06:24;18.70;99.90
21678;DHT22;11000;50.360;7.582;2023-07-29T03:08:44;18.70;99.90
21678;DHT22;11000;50.360;7.582;2023-07-29T03:11:13;18.70;99.90
21678;DHT22;11000;50.360;7.582;2023-07-29T03:13:34;18.70;99.90
21678;DHT22;11000;50.360;7.582;2023-07-29T03:15:54;18.70;99.90
21678;DHT22;11000;50.360;7.582;2023-07-29T03:18:24;18.70;99.90
21678;DHT22;11000;50.360;7.582;2023-07-29T03:20:45;18.60;99.90
21678;DHT22;11000;50.360;7.582;2023-07-29T03:23:05;18.60;99.90
21678;DHT22;11000;50.360;7.582;2023-07-29T03:25:26;18.60;99.90
21678;DHT22;11000;50.360;7.582;2023-07-29T03:27:47;18.60;99.90
21678;DHT22;11000;50.360;7.582;2023-07-29T03:30:10;18.60;99.90
21678;DHT22;11000;50.360;7.582;2023-07-29T03:32:30;18.60;99.90
21678;DHT22;11000;50.360;7.582;2023-07-29T03:34:51;18.60;99.90
21678;DHT22;11000;50.360;7.582;2023-07-29T03:37:11;18.60;99.90
21678;DHT22;11000;50.360;7.582;2023-07-29T03:39:32;18.60;99.90
21678;DHT22;11000;50.360;7.582;2023-07-29T03:41:52;18.60;99.90
21678;DHT22;11000;50.360;7.582;2023-07-29T03:44:13;18.60;99.90
21678;DHT22;11000;50.360;7.582;2023-07-29T03:46:33;18.60;99.90
21678;DHT22;11000;50.360;7.582;2023-07-29T03:48:54;18.60;99.90
21678;DHT22;11000;50.360;7.582;2023-07-29T03:51:14;18.60;99.90
21678;DHT22;11000;50.360;7.582;2023-07-29T03:53:35;18.60;99.90
21678;DHT22;11000;50.360;7.582;2023-07-29T03:55:56;18.60;99.90
21678;DHT22;11000;50.360;7.582;2023-07-29T03:58:16;18.60;99.90
21678;DHT22;11000;50.360;7.582;2023-07-29T04:00:37;18.60;99.90
21678;DHT22;11000;50.360;7.582;2023-07-29T04:02:57;18.60;99.90
21678;DHT22;11000;50.360;7.582;2023-07-29T04:05:18;18.60;99.90
21678;DHT22;11000;50.360;7.582;2023-07-29T04:07:38;18.70;99.90
21678;DHT22;11000;50.360;7.582;2023-07-29T04:10:00;18.70;99.90
21678;DHT22;11000;50.360;7.582;2023-07-29T04:12:21;18.70;99.90
21678;DHT22;11000;50.360;7.582;2023-07-29T04:14:41;18.70;99.90
21678;DHT22;11000;50.360;7.582;2023-07-29T04:17:02;18.80;99.90
21678;DHT22;11000;50.360;7.582;2023-07-29T04:19:23;18.80;99.90
21678;DHT22;11000;50.360;7.582;2023-07-29T04:21:43;18.80;99.90
21678;DHT22;11000;50.360;7.582;2023-07-29T04:24:04;18.80;99.90
21678;DHT22;11000;50.360;7.582;2023-07-29T04:26:24;18.80;99.90
21678;DHT22;11000;50.360;7.582;2023-07-29T04:28:45;18.80;99.90
21678;DHT22;11000;50.360;7.582;2023-07-29T04:31:07;18.90;99.90
21678;DHT22;11000;50.360;7.582;2023-07-29T04:33:29;19.00;99.90
21678;DHT22;11000;50.360;7.582;2023-07-29T04:35:51;19.00;99.90
21678;DHT22;11000;50.360;7.582;2023-07-29T04:38:11;19.10;99.90
21678;DHT22;11000;50.360;7.582;2023-07-29T04:40:35;19.10;99.90
21678;DHT22;11000;50.360;7.582;2023-07-29T04:42:55;19.10;99.90
21678;DHT22;11000;50.360;7.582;2023-07-29T04:45:16;19.10;99.90
21678;DHT22;11000;50.360;7.582;2023-07-29T04:47:37;19.20;99.90
21678;DHT22;11000;50.360;7.582;2023-07-29T04:49:57;19.20;99.90
21678;DHT22;11000;50.360;7.582;2023-07-29T04:52:18;19.20;99.90
21678;DHT22;11000;50.360;7.582;2023-07-29T04:54:40;19.30;99.90
21678;DHT22;11000;50.360;7.582;2023-07-29T04:57:00;19.30;99.90
21678;DHT22;11000;50.360;7.582;2023-07-29T04:59:21;19.30;99.90
21678;DHT22;11000;50.360;7.582;2023-07-29T05:01:41;19.40;99.90
21678;DHT22;11000;50.360;7.582;2023-07-29T05:04:03;19.40;99.90
21678;DHT22;11000;50.360;7.582;2023-07-29T05:06:24;19.40;99.90
21678;DHT22;11000;50.360;7.582;2023-07-29T05:08:45;19.40;99.90
21678;DHT22;11000;50.360;7.582;2023-07-29T05:11:06;19.30;99.90
21678;DHT22;11000;50.360;7.582;2023-07-29T05:13:26;19.30;99.90
21678;DHT22;11000;50.360;7.582;2023-07-29T05:15:47;19.30;99.90
21678;DHT22;11000;50.360;7.582;2023-07-29T05:18:08;19.30;99.90
21678;DHT22;11000;50.360;7.582;2023-07-29T05:20:28;19.30;99.90
21678;DHT22;11000;50.360;7.582;2023-07-29T05:22:49;19.30;99.90
21678;DHT22;11000;50.360;7.582;2023-07-29T05:25:09;19.30;99.90
21678;DHT22;11000;50.360;7.582;2023-07-29T05:27:30;19.30;99.90
21678;DHT22;11000;50.360;7.582;2023-07-29T05:29:51;19.30;99.90
21678;DHT22;11000;50.360;7.582;2023-07-29T05:32:11;19.30;99.90
21678;DHT22;11000;50.360;7.582;2023-07-29T05:34:32;19.30;99.90
21678;DHT22;11000;50.360;7.582;2023-07-29T05:36:52;19.30;99.90
21678;DHT22;11000;50.360;7.582;2023-07-29T05:39:13;19.30;99.90
21678;DHT22;11000;50.360;7.582;2023-07-29T05:41:34;19.30;99.90
21678;DHT22;11000;50.360;7.582;2023-07-29T05:43:54;19.20;99.90
21678;DHT22;11000;50.360;7.582;2023-07-29T05:46:15;19.30;99.90
21678;DHT22;11000;50.360;7.582;2023-07-29T05:48:35;19.30;99.90
21678;DHT22;11000;50.360;7.582;2023-07-29T05:50:56;19.20;99.90
21678;DHT22;11000;50.360;7.582;2023-07-29T05:53:16;19.30;99.90
21678;DHT22;11000;50.360;7.582;2023-07-29T05:55:37;19.30;99.90
21678;DHT22;11000;50.360;7.582;2023-07-29T05:57:57;19.30;99.90
21678;DHT22;11000;50.360;7.582;2023-07-29T06:00:18;19.30;99.90
21678;DHT22;11000;50.360;7.582;2023-07-29T06:02:39;19.30;99.90
21678;DHT22;11000;50.360;7.582;2023-07-29T06:05:01;19.30;99.90
21678;DHT22;11000;50.360;7.582;2023-07-29T06:07:23;19.30;99.90
21678;DHT22;11000;50.360;7.582;2023-07-29T06:09:44;19.40;99.90
21678;DHT22;11000;50.360;7.582;2023-07-29T06:12:04;19.40;99.90
21678;DHT22;11000;50.360;7.582;2023-07-29T06:14:25;19.40;99.90
21678;DHT22;11000;50.360;7.582;2023-07-29T06:16:46;19.40;99.90
21678;DHT22;11000;50.360;7.582;2023-07-29T06:19:06;19.30;99.90
21678;DHT22;11000;50.360;7.582;2023-07-29T06:21:29;19.30;99.90
21678;DHT22;11000;50.360;7.582;2023-07-29T06:23:49;19.40;99.90
21678;DHT22;11000;50.360;7.582;2023-07-29T06:26:10;19.40;99.90
21678;DHT22;11000;50.360;7.582;2023-07-29T06:28:30;19.40;99.90
21678;DHT22;11000;50.360;7.582;2023-07-29T06:30:51;19.40;99.90
21678;DHT22;11000;50.360;7.582;2023-07-29T06:33:11;19.40;99.90
21678;DHT22;11000;50.360;7.582;2023-07-29T06:35:32;19.40;99.90
21678;DHT22;11000;50.360;7.582;2023-07-29T06:37:52;19.50;99.90
21678;DHT22;11000;50.360;7.582;2023-07-29T06:40:13;19.50;99.90
21678;DHT22;11000;50.360;7.582;2023-07-29T06:42:33;19.50;99.90
21678;DHT22;11000;50.360;7.582;2023-07-29T06:44:54;19.60;99.90
21678;DHT22;11000;50.360;7.582;2023-07-29T06:47:14;19.60;99.90
21678;DHT22;11000;50.360;7.582;2023-07-29T06:49:35;19.60;99.90
21678;DHT22;11000;50.360;7.582;2023-07-29T06:51:55;19.60;99.90
21678;DHT22;11000;50.360;7.582;2023-07-29T06:54:16;19.70;99.90
21678;DHT22;11000;50.360;7.582;2023-07-29T06:56:37;19.70;99.90
21678;DHT22;11000;50.360;7.582;2023-07-29T06:58:58;19.70;99.90
21678;DHT22;11000;50.360;7.582;2023-07-29T07:01:18;19.70;99.90
21678;DHT22;11000;50.360;7.582;2023-07-29T07:03:39;19.80;99.90
21678;DHT22;11000;50.360;7.582;2023-07-29T07:05:59;19.90;99.90
21678;DHT22;11000;50.360;7.582;2023-07-29T07:08:20;19.90;99.90
21678;DHT22;11000;50.360;7.582;2023-07-29T07:10:40;20.10;99.90
21678;DHT22;11000;50.360;7.582;2023-07-29T07:13:01;20.40;99.90
21678;DHT22;11000;50.360;7.582;2023-07-29T07:15:21;21.00;99.90
21678;DHT22;11000;50.360;7.582;2023-07-29T07:17:42;21.40;99.90
21678;DHT22;11000;50.360;7.582;2023-07-29T07:20:03;22.00;99.90
21678;DHT22;11000;50.360;7.582;2023-07-29T07:22:23;22.50;99.90
21678;DHT22;11000;50.360;7.582;2023-07-29T07:24:44;22.60;99.90
21678;DHT22;11000;50.360;7.582;2023-07-29T07:27:05;22.30;99.90
21678;DHT22;11000;50.360;7.582;2023-07-29T07:29:25;22.20;99.90
21678;DHT22;11000;50.360;7.582;2023-07-29T07:31:53;22.30;99.90
21678;DHT22;11000;50.360;7.582;2023-07-29T07:34:14;22.30;99.90
21678;DHT22;11000;50.360;7.582;2023-07-29T07:36:34;22.80;99.90
21678;DHT22;11000;50.360;7.582;2023-07-29T07:38:55;23.50;99.90
21678;DHT22;11000;50.360;7.582;2023-07-29T07:41:16;24.20;99.90
21678;DHT22;11000;50.360;7.582;2023-07-29T07:43:36;24.80;99.90
21678;DHT22;11000;50.360;7.582;2023-07-29T07:45:58;24.60;99.90
21678;DHT22;11000;50.360;7.582;2023-07-29T07:48:19;24.70;99.90
21678;DHT22;11000;50.360;7.582;2023-07-29T07:50:40;25.40;99.90
21678;DHT22;11000;50.360;7.582;2023-07-29T07:53:00;26.00;99.90
21678;DHT22;11000;50.360;7.582;2023-07-29T07:55:21;26.60;99.90
21678;DHT22;11000;50.360;7.582;2023-07-29T07:57:41;26.80;99.90
21678;DHT22;11000;50.360;7.582;2023-07-29T08:00:02;27.20;99.90
21678;DHT22;11000;50.360;7.582;2023-07-29T08:02:24;26.90;99.90
21678;DHT22;11000;50.360;7.582;2023-07-29T08:04:45;26.30;99.90
21678;DHT22;11000;50.360;7.582;2023-07-29T08:07:05;25.80;99.90
21678;DHT22;11000;50.360;7.582;2023-07-29T08:09:26;25.30;99.90
21678;DHT22;11000;50.360;7.582;2023-07-29T08:11:47;24.70;99.90
21678;DHT22;11000;50.360;7.582;2023-07-29T08:14:07;24.30;99.90
21678;DHT22;11000;50.360;7.582;2023-07-29T08:16:28;24.00;99.90
21678;DHT22;11000;50.360;7.582;2023-07-29T08:18:48;23.60;99.90
21678;DHT22;11000;50.360;7.582;2023-07-29T08:21:09;23.40;99.90
21678;DHT22;11000;50.360;7.582;2023-07-29T08:23:30;23.50;99.90
21678;DHT22;11000;50.360;7.582;2023-07-29T08:25:53;23.80;99.90
21678;DHT22;11000;50.360;7.582;2023-07-29T08:28:13;24.00;99.90
21678;DHT22;11000;50.360;7.582;2023-07-29T08:30:34;24.20;99.90
21678;DHT22;11000;50.360;7.582;2023-07-29T08:32:54;24.30;99.90
21678;DHT22;11000;50.360;7.582;2023-07-29T08:35:15;24.20;99.90
21678;DHT22;11000;50.360;7.582;2023-07-29T08:37:35;24.00;99.90
21678;DHT22;11000;50.360;7.582;2023-07-29T08:39:56;23.80;99.90
21678;DHT22;11000;50.360;7.582;2023-07-29T08:42:19;23.80;99.90
21678;DHT22;11000;50.360;7.582;2023-07-29T08:44:43;23.60;99.90
21678;DHT22;11000;50.360;7.582;2023-07-29T08:47:04;23.30;99.90
21678;DHT22;11000;50.360;7.582;2023-07-29T08:49:26;23.20;99.90
21678;DHT22;11000;50.360;7.582;2023-07-29T08:51:49;23.00;99.90
21678;DHT22;11000;50.360;7.582;2023-07-29T08:54:10;23.00;99.90
21678;DHT22;11000;50.360;7.582;2023-07-29T08:56:31;22.90;99.90
21678;DHT22;11000;50.360;7.582;2023-07-29T08:58:52;22.90;99.90
21678;DHT22;11000;50.360;7.582;2023-07-29T09:01:14;22.80;99.90
21678;DHT22;11000;50.360;7.582;2023-07-29T09:03:36;22.80;99.90
21678;DHT22;11000;50.360;7.582;2023-07-29T09:05:57;22.70;99.90
21678;DHT22;11000;50.360;7.582;2023-07-29T09:08:19;22.70;99.90
21678;DHT22;11000;50.360;7.582;2023-07-29T09:10:40;22.80;99.90
21678;DHT22;11000;50.360;7.582;2023-07-29T09:13:01;22.60;99.90
21678;DHT22;11000;50.360;7.582;2023-07-29T09:15:30;22.40;99.90
21678;DHT22;11000;50.360;7.582;2023-07-29T09:17:52;22.20;99.90
21678;DHT22;11000;50.360;7.582;2023-07-29T09:20:12;21.90;99.90
21678;DHT22;11000;50.360;7.582;2023-07-29T09:22:34;21.70;99.90
21678;DHT22;11000;50.360;7.582;2023-07-29T09:24:57;21.40;99.90
21678;DHT22;11000;50.360;7.582;2023-07-29T09:27:25;21.20;99.90
21678;DHT22;11000;50.360;7.582;2023-07-29T09:29:46;21.00;99.90
21678;DHT22;11000;50.360;7.582;2023-07-29T09:32:24;20.90;99.90
21678;DHT22;11000;50.360;7.582;2023-07-29T09:34:45;20.80;99.90
21678;DHT22;11000;50.360;7.582;2023-07-29T09:37:06;20.90;99.90
21678;DHT22;11000;50.360;7.582;2023-07-29T09:39:31;20.80;99.90
21678;DHT22;11000;50.360;7.582;2023-07-29T09:41:51;20.90;99.90
21678;DHT22;11000;50.360;7.582;2023-07-29T09:44:12;20.80;99.90
21678;DHT22;11000;50.360;7.582;2023-07-29T09:46:37;20.90;99.90
21678;DHT22;11000;50.360;7.582;2023-07-29T09:48:58;20.90;99.90
21678;DHT22;11000;50.360;7.582;2023-07-29T09:51:19;21.00;99.90
21678;DHT22;11000;50.360;7.582;2023-07-29T09:53:47;21.00;99.90
21678;DHT22;11000;50.360;7.582;2023-07-29T09:56:08;21.10;99.90
21678;DHT22;11000;50.360;7.582;2023-07-29T09:58:29;21.10;99.90
21678;DHT22;11000;50.360;7.582;2023-07-29T10:00:50;21.10;99.90
21678;DHT22;11000;50.360;7.582;2023-07-29T10:03:10;21.10;99.90
21678;DHT22;11000;50.360;7.582;2023-07-29T10:05:32;21.10;99.90
21678;DHT22;11000;50.360;7.582;2023-07-29T10:07:55;21.10;99.90
21678;DHT22;11000;50.360;7.582;2023-07-29T10:10:16;21.00;99.90
21678;DHT22;11000;50.360;7.582;2023-07-29T10:12:39;20.90;99.90
21678;DHT22;11000;50.360;7.582;2023-07-29T10:15:02;20.80;99.90
21678;DHT22;11000;50.360;7.582;2023-07-29T10:17:24;20.80;99.90
21678;DHT22;11000;50.360;7.582;2023-07-29T10:19:46;20.90;99.90
21678;DHT22;11000;50.360;7.582;2023-07-29T10:22:07;21.10;99.90
21678;DHT22;11000;50.360;7.582;2023-07-29T10:24:32;21.30;99.90
21678;DHT22;11000;50.360;7.582;2023-07-29T10:26:54;21.40;99.90
21678;DHT22;11000;50.360;7.582;2023-07-29T10:29:19;21.60;99.90
21678;DHT22;11000;50.360;7.582;2023-07-29T10:31:43;21.80;99.90
21678;DHT22;11000;50.360;7.582;2023-07-29T10:34:04;21.90;99.90
21678;DHT22;11000;50.360;7.582;2023-07-29T10:36:26;22.00;99.90
21678;DHT22;11000;50.360;7.582;2023-07-29T10:38:47;22.20;99.90
21678;DHT22;11000;50.360;7.582;2023-07-29T10:41:07;22.80;99.90
21678;DHT22;11000;50.360;7.582;2023-07-29T10:43:33;23.40;99.90
21678;DHT22;11000;50.360;7.582;2023-07-29T10:45:56;23.90;99.90
21678;DHT22;11000;50.360;7.582;2023-07-29T10:51:23;24.80;99.90
21678;DHT22;11000;50.360;7.582;2023-07-29T10:53:44;25.40;99.90
21678;DHT22;11000;50.360;7.582;2023-07-29T10:56:05;25.80;99.90
21678;DHT22;11000;50.360;7.582;2023-07-29T10:58:26;26.30;99.90
21678;DHT22;11000;50.360;7.582;2023-07-29T11:00:50;26.60;99.90
21678;DHT22;11000;50.360;7.582;2023-07-29T11:03:12;26.60;99.90
21678;DHT22;11000;50.360;7.582;2023-07-29T11:05:50;26.00;99.90
21678;DHT22;11000;50.360;7.582;2023-07-29T11:08:31;25.90;99.90
21678;DHT22;11000;50.360;7.582;2023-07-29T11:11:06;26.40;99.90
21678;DHT22;11000;50.360;7.582;2023-07-29T11:13:28;27.00;99.90
21678;DHT22;11000;50.360;7.582;2023-07-29T11:15:50;27.40;99.90
21678;DHT22;11000;50.360;7.582;2023-07-29T11:18:12;27.20;99.90
21678;DHT22;11000;50.360;7.582;2023-07-29T11:20:35;27.00;99.90
21678;DHT22;11000;50.360;7.582;2023-07-29T11:22:58;26.40;99.90
21678;DHT22;11000;50.360;7.582;2023-07-29T11:25:21;25.90;99.90
21678;DHT22;11000;50.360;7.582;2023-07-29T11:27:42;25.30;99.90
21678;DHT22;11000;50.360;7.582;2023-07-29T11:30:06;24.80;99.90
21678;DHT22;11000;50.360;7.582;2023-07-29T11:32:27;24.10;99.90
21678;DHT22;11000;50.360;7.582;2023-07-29T11:34:47;23.90;99.90
21678;DHT22;11000;50.360;7.582;2023-07-29T11:37:11;23.80;99.90
21678;DHT22;11000;50.360;7.582;2023-07-29T11:39:32;23.70;99.90
21678;DHT22;11000;50.360;7.582;2023-07-29T11:41:53;23.70;99.90
21678;DHT22;11000;50.360;7.582;2023-07-29T11:44:17;23.70;99.90
21678;DHT22;11000;50.360;7.582;2023-07-29T11:46:37;23.80;99.90
21678;DHT22;11000;50.360;7.582;2023-07-29T11:49:00;23.60;99.90
21678;DHT22;11000;50.360;7.582;2023-07-29T11:51:21;23.50;99.90
21678;DHT22;11000;50.360;7.582;2023-07-29T11:53:42;23.60;99.90
21678;DHT22;11000;50.360;7.582;2023-07-29T11:56:03;23.80;99.90
21678;DHT22;11000;50.360;7.582;2023-07-29T11:58:24;23.80;99.90
21678;DHT22;11000;50.360;7.582;2023-07-29T12:00:45;23.80;99.90
21678;DHT22;11000;50.360;7.582;2023-07-29T12:03:06;23.70;99.90
21678;DHT22;11000;50.360;7.582;2023-07-29T12:05:29;23.50;99.90
21678;DHT22;11000;50.360;7.582;2023-07-29T12:07:49;23.20;99.90
21678;DHT22;11000;50.360;7.582;2023-07-29T12:10:10;23.00;99.90
21678;DHT22;11000;50.360;7.582;2023-07-29T12:12:31;23.10;99.90
21678;DHT22;11000;50.360;7.582;2023-07-29T12:14:54;23.40;99.90
21678;DHT22;11000;50.360;7.582;2023-07-29T12:17:15;23.30;99.90
21678;DHT22;11000;50.360;7.582;2023-07-29T12:19:37;23.60;99.90
21678;DHT22;11000;50.360;7.582;2023-07-29T12:21:58;24.00;99.90
21678;DHT22;11000;50.360;7.582;2023-07-29T12:24:18;24.20;99.90
21678;DHT22;11000;50.360;7.582;2023-07-29T12:26:39;24.20;99.90
21678;DHT22;11000;50.360;7.582;2023-07-29T12:29:16;24.40;99.90
21678;DHT22;11000;50.360;7.582;2023-07-29T12:31:37;24.40;99.90
21678;DHT22;11000;50.360;7.582;2023-07-29T12:33:58;24.30;99.90
21678;DHT22;11000;50.360;7.582;2023-07-29T12:36:18;24.50;99.90
21678;DHT22;11000;50.360;7.582;2023-07-29T12:38:39;25.00;99.90
21678;DHT22;11000;50.360;7.582;2023-07-29T12:41:02;25.30;99.90
21678;DHT22;11000;50.360;7.582;2023-07-29T12:43:23;25.20;99.90
21678;DHT22;11000;50.360;7.582;2023-07-29T12:45:45;24.90;99.90
21678;DHT22;11000;50.360;7.582;2023-07-29T12:48:06;24.80;99.90
21678;DHT22;11000;50.360;7.582;2023-07-29T12:50:26;24.50;99.90
21678;DHT22;11000;50.360;7.582;2023-07-29T12:52:47;24.30;99.90
21678;DHT22;11000;50.360;7.582;2023-07-29T12:55:07;24.10;99.90
21678;DHT22;11000;50.360;7.582;2023-07-29T12:57:29;23.90;99.90
21678;DHT22;11000;50.360;7.582;2023-07-29T12:59:49;24.00;99.90
21678;DHT22;11000;50.360;7.582;2023-07-29T13:02:10;24.10;99.90
21678;DHT22;11000;50.360;7.582;2023-07-29T13:04:30;24.20;99.90
21678;DHT22;11000;50.360;7.582;2023-07-29T13:06:51;24.30;99.90
21678;DHT22;11000;50.360;7.582;2023-07-29T13:09:11;24.40;99.90
21678;DHT22;11000;50.360;7.582;2023-07-29T13:11:32;24.00;99.90
21678;DHT22;11000;50.360;7.582;2023-07-29T13:13:53;23.80;99.90
21678;DHT22;11000;50.360;7.582;2023-07-29T13:16:13;23.80;99.90
21678;DHT22;11000;50.360;7.582;2023-07-29T13:18:34;23.60;99.90
21678;DHT22;11000;50.360;7.582;2023-07-29T13:20:55;23.70;99.90
21678;DHT22;11000;50.360;7.582;2023-07-29T13:23:16;23.30;99.90
21678;DHT22;11000;50.360;7.582;2023-07-29T13:25:36;23.20;99.90
21678;DHT22;11000;50.360;7.582;2023-07-29T13:27:57;23.10;99.90
21678;DHT22;11000;50.360;7.582;2023-07-29T13:30:17;23.10;99.90
21678;DHT22;11000;50.360;7.582;2023-07-29T13:32:38;23.20;99.90
21678;DHT22;11000;50.360;7.582;2023-07-29T13:34:58;23.30;99.90
21678;DHT22;11000;50.360;7.582;2023-07-29T13:37:19;23.40;99.90
21678;DHT22;11000;50.360;7.582;2023-07-29T13:39:39;23.40;99.90
21678;DHT22;11000;50.360;7.582;2023-07-29T13:42:00;23.20;99.90
21678;DHT22;11000;50.360;7.582;2023-07-29T13:44:21;23.10;99.90
21678;DHT22;11000;50.360;7.582;2023-07-29T13:46:41;23.10;99.90
21678;DHT22;11000;50.360;7.582;2023-07-29T13:49:02;23.10;99.90
21678;DHT22;11000;50.360;7.582;2023-07-29T13:51:23;23.10;99.90
21678;DHT22;11000;50.360;7.582;2023-07-29T13:53:43;23.30;99.90
21678;DHT22;11000;50.360;7.582;2023-07-29T13:56:04;23.40;99.90
21678;DHT22;11000;50.360;7.582;2023-07-29T13:58:25;23.40;99.90
21678;DHT22;11000;50.360;7.582;2023-07-29T14:00:46;23.50;99.90
21678;DHT22;11000;50.360;7.582;2023-07-29T14:03:06;23.30;99.90
21678;DHT22;11000;50.360;7.582;2023-07-29T14:05:27;23.20;99.90
21678;DHT22;11000;50.360;7.582;2023-07-29T14:07:47;23.30;99.90
21678;DHT22;11000;50.360;7.582;2023-07-29T14:10:08;23.30;99.90
21678;DHT22;11000;50.360;7.582;2023-07-29T14:12:29;23.30;99.90
21678;DHT22;11000;50.360;7.582;2023-07-29T14:14:49;23.20;99.90
21678;DHT22;11000;50.360;7.582;2023-07-29T14:17:10;23.10;99.90
21678;DHT22;11000;50.360;7.582;2023-07-29T14:19:31;23.20;99.90
21678;DHT22;11000;50.360;7.582;2023-07-29T14:21:51;23.00;99.90
21678;DHT22;11000;50.360;7.582;2023-07-29T14:24:12;23.10;99.90
21678;DHT22;11000;50.360;7.582;2023-07-29T14:26:32;23.30;99.90
21678;DHT22;11000;50.360;7.582;2023-07-29T14:28:53;23.30;99.90
21678;DHT22;11000;50.360;7.582;2023-07-29T14:31:14;23.30;99.90
21678;DHT22;11000;50.360;7.582;2023-07-29T14:33:37;23.50;99.90
21678;DHT22;11000;50.360;7.582;2023-07-29T14:35:57;23.80;99.90
21678;DHT22;11000;50.360;7.582;2023-07-29T14:38:18;24.20;99.90
21678;DHT22;11000;50.360;7.582;2023-07-29T14:40:38;24.40;99.90
21678;DHT22;11000;50.360;7.582;2023-07-29T14:42:59;24.70;99.90
21678;DHT22;11000;50.360;7.582;2023-07-29T14:45:19;24.70;99.90
21678;DHT22;11000;50.360;7.582;2023-07-29T14:47:40;24.70;99.90
21678;DHT22;11000;50.360;7.582;2023-07-29T14:50:01;25.00;99.90
21678;DHT22;11000;50.360;7.582;2023-07-29T14:52:21;25.30;99.90
21678;DHT22;11000;50.360;7.582;2023-07-29T14:54:42;25.50;99.90
21678;DHT22;11000;50.360;7.582;2023-07-29T14:57:04;25.30;99.90
21678;DHT22;11000;50.360;7.582;2023-07-29T14:59:25;25.50;99.90
21678;DHT22;11000;50.360;7.582;2023-07-29T15:01:45;25.90;99.90
21678;DHT22;11000;50.360;7.582;2023-07-29T15:04:06;26.00;99.90